PORTS® Data Listing: 9076027 West Neebish Island, MI

CO-OPS RAW PORTS DATA

************************      PRELIMINARY DATA      ************************** 

     THIS RAW DATA HAS NOT BEEN SUBJECT TO THE NATIONAL OCEAN SERVICE'S        
     QUALITY CONTROL OR QUALITY ASSURANCE PROCEDURES AND DOES NOT MEET         
     THE CRITERIA AND STANDARDS OF OFFICIAL NATIONAL OCEAN SERVICE             
     DATA.  IT IS RELEASED FOR LIMITED PUBLIC USE AS PRELIMINARY DATA TO       
     BE USED ONLY WITH APPROPRIATE CAUTION.                                    

************************      PRELIMINARY DATA      ************************** 


       CD   -   Calendar date
       T    -   Time
       TZ   -   Timezone
       SW   -   Observed secondary water level (inches IGLD 1985)
       PW   -   Observed primary water level (inches IGLD 1985)
       WS   -   Wind speed (knots)
       WD   -   Wind direction (degrees true)
       WG   -   Wind gust (knots)
       AT   -   Air temperature (degrees farenheit)
       WT   -   Water temperature (degrees farenheit)
       AP   -   Air pressure (millibars)
       SA   -   Salinty (PSU - Practical Salinity Units)
       SG   -   Specific gravity
       RH   -   Relative humidity
       AG   -   Air gap (feet)
       VI   -   Visibility (nautical miles)

       ** NOTE **
       A variable that has its data fields filled with "9"s, indicates that
       data was not collected for that sample period.
       **********


STATION NAME: West Neebish Island (9076027)
****************************************************************************************************
    CD       T    TZ    SW     PW    WS   WD   WG    AT    WT    AP    SA    SG     RH    AG   VI
****************************************************************************************************
2020/01/18 05:12 EST   48.86  48.94   11  116   15  19.0 -99.9 1021.0 -9.9 -9.999  83.8 -99.99 -9.99
2020/01/18 05:18 EST   48.86  48.94    9  112   15  19.0 -99.9 1020.8 -9.9 -9.999  84.0 -99.99 -9.99
2020/01/18 05:24 EST   48.86  48.94    8  114   18  19.0 -99.9 1020.8 -9.9 -9.999  84.1 -99.99 -9.99
2020/01/18 05:30 EST   48.82  48.90   11  107   16  19.0 -99.9 1020.6 -9.9 -9.999  84.1 -99.99 -9.99
2020/01/18 05:36 EST   48.82  48.90   10  109   16  19.0 -99.9 1020.6 -9.9 -9.999  84.0 -99.99 -9.99
2020/01/18 05:42 EST   48.74  48.82   10  112   18  18.9 -99.9 1020.4 -9.9 -9.999  84.3 -99.99 -9.99
2020/01/18 05:48 EST   48.70  48.78   11  116   22  18.9 -99.9 1020.5 -9.9 -9.999  84.2 -99.99 -9.99
2020/01/18 05:54 EST   48.58  48.66   14  110   19  18.9 -99.9 1020.1 -9.9 -9.999  83.8 -99.99 -9.99
2020/01/18 06:00 EST   48.58  48.62   11  104   18  18.7 -99.9 1019.4 -9.9 -9.999  84.0 -99.99 -9.99
2020/01/18 06:06 EST   48.50  48.54   12  105   22  18.7 -99.9 1018.9 -9.9 -9.999  83.9 -99.99 -9.99
2020/01/18 06:12 EST   48.50  48.54   11  113   20  18.5 -99.9 1018.8 -9.9 -9.999  84.1 -99.99 -9.99
2020/01/18 06:18 EST   48.50  48.54   11  110   23  18.3 -99.9 1018.7 -9.9 -9.999  84.0 -99.99 -9.99
2020/01/18 06:24 EST   48.46  48.50   10  112   21  18.3 -99.9 1018.5 -9.9 -9.999  84.2 -99.99 -9.99
2020/01/18 06:30 EST   48.50  48.54   11  102   20  18.1 -99.9 1018.3 -9.9 -9.999  83.9 -99.99 -9.99
2020/01/18 06:36 EST   48.50  48.54   14  100   20  18.1 -99.9 1018.1 -9.9 -9.999  83.9 -99.99 -9.99
2020/01/18 06:42 EST   48.54  48.62   11  105   17  18.0 -99.9 1017.9 -9.9 -9.999  83.9 -99.99 -9.99
2020/01/18 06:48 EST   48.66  48.70    9  106   18  18.0 -99.9 1017.8 -9.9 -9.999  84.2 -99.99 -9.99
2020/01/18 06:54 EST   48.66  48.70   15  105   21  18.3 -99.9 1017.9 -9.9 -9.999  83.5 -99.99 -9.99
2020/01/18 07:00 EST   48.70  48.78   10  103   19  18.1 -99.9 1017.6 -9.9 -9.999  84.1 -99.99 -9.99
2020/01/18 07:06 EST   48.78  48.82   12  105   17  18.1 -99.9 1017.5 -9.9 -9.999  84.5 -99.99 -9.99
2020/01/18 07:12 EST   48.90  48.94   11  113   19  18.0 -99.9 1017.4 -9.9 -9.999  84.6 -99.99 -9.99
2020/01/18 07:18 EST   49.02  49.02   12  102   23  18.0 -99.9 1017.1 -9.9 -9.999  84.4 -99.99 -9.99
2020/01/18 07:24 EST   49.09  49.09   10  106   17  18.0 -99.9 1016.6 -9.9 -9.999  84.4 -99.99 -9.99
2020/01/18 07:30 EST   49.13  49.13   10  100   23  18.0 -99.9 1016.3 -9.9 -9.999  84.4 -99.99 -9.99
2020/01/18 07:36 EST   49.17  49.21   12   97   19  18.0 -99.9 1016.1 -9.9 -9.999  84.3 -99.99 -9.99
2020/01/18 07:42 EST   49.25  49.29   13  103   19  18.0 -99.9 1015.8 -9.9 -9.999  84.2 -99.99 -9.99
2020/01/18 07:48 EST   49.29  49.33   10  107   19  18.0 -99.9 1015.8 -9.9 -9.999  84.4 -99.99 -9.99
2020/01/18 07:54 EST   49.29  49.33   10  108   20  18.0 -99.9 1015.7 -9.9 -9.999  84.1 -99.99 -9.99
2020/01/18 08:00 EST   49.29  49.33   11  105   17  18.1 -99.9 1015.7 -9.9 -9.999  83.8 -99.99 -9.99
2020/01/18 08:06 EST   49.29  49.37   13  110   19  18.1 -99.9 1015.4 -9.9 -9.999  83.8 -99.99 -9.99
2020/01/18 08:12 EST   49.25  49.29   11  105   19  18.1 -99.9 1015.0 -9.9 -9.999  83.7 -99.99 -9.99
2020/01/18 08:18 EST   49.33  49.37   13  106   18  18.1 -99.9 1014.7 -9.9 -9.999  83.7 -99.99 -9.99
2020/01/18 08:24 EST   49.33  49.37   10  102   15  18.1 -99.9 1014.4 -9.9 -9.999  83.8 -99.99 -9.99
2020/01/18 08:30 EST   49.33  49.37   11  107   18  18.1 -99.9 1014.2 -9.9 -9.999  83.9 -99.99 -9.99
2020/01/18 08:36 EST   49.41  49.45    9  107   17  18.1 -99.9 1014.0 -9.9 -9.999  83.9 -99.99 -9.99
2020/01/18 08:42 EST   49.37  49.41   11  106   17  18.1 -99.9 1013.6 -9.9 -9.999  84.1 -99.99 -9.99
2020/01/18 08:48 EST   49.41  49.45   11  100   22  18.1 -99.9 1013.4 -9.9 -9.999  83.7 -99.99 -9.99
2020/01/18 08:54 EST   49.41  49.45   11  111   19  18.1 -99.9 1013.1 -9.9 -9.999  83.9 -99.99 -9.99
2020/01/18 09:00 EST   49.45  49.53   10  104   18  18.0 -99.9 1012.8 -9.9 -9.999  84.4 -99.99 -9.99
2020/01/18 09:06 EST   49.41  49.45   10  114   15  17.8 -99.9 1012.7 -9.9 -9.999  85.5 -99.99 -9.99
2020/01/18 09:12 EST   49.41  49.45   10   99   19  17.6 -99.9 1012.3 -9.9 -9.999  86.0 -99.99 -9.99
2020/01/18 09:18 EST   49.45  49.53   12  107   18  17.4 -99.9 1012.1 -9.9 -9.999  86.0 -99.99 -9.99
2020/01/18 09:24 EST   49.45  49.49   10  101   16  17.4 -99.9 1011.8 -9.9 -9.999  86.2 -99.99 -9.99
2020/01/18 09:30 EST   49.49  49.57    9  102   19  17.4 -99.9 1011.5 -9.9 -9.999  85.9 -99.99 -9.99
2020/01/18 09:36 EST   49.49  49.57   10  107   17  17.6 -99.9 1011.2 -9.9 -9.999  85.7 -99.99 -9.99
2020/01/18 09:42 EST   49.49  49.53   11  100   19  17.6 -99.9 1010.8 -9.9 -9.999  85.4 -99.99 -9.99
2020/01/18 09:48 EST   49.45  49.53   11  101   18  18.0 -99.9 1010.7 -9.9 -9.999  85.2 -99.99 -9.99
2020/01/18 09:54 EST   49.45  49.53   14   97   20  18.1 -99.9 1010.3 -9.9 -9.999  84.9 -99.99 -9.99
2020/01/18 10:00 EST   49.37  49.41   11  106   21  18.3 -99.9 1009.9 -9.9 -9.999  84.9 -99.99 -9.99
2020/01/18 10:06 EST   49.29  49.33    9  107   18  18.3 -99.9 1009.6 -9.9 -9.999  84.9 -99.99 -9.99
2020/01/18 10:12 EST   49.33  49.37   11  103   18  18.5 -99.9 1009.5 -9.9 -9.999  84.6 -99.99 -9.99
2020/01/18 10:18 EST   49.29  49.37   15  111   22  18.7 -99.9 1009.5 -9.9 -9.999  84.3 -99.99 -9.99
2020/01/18 10:24 EST   49.33  49.37   12  116   17  18.9 -99.9 1009.4 -9.9 -9.999  84.3 -99.99 -9.99
2020/01/18 10:30 EST   49.33  49.37   10  116   21  18.9 -99.9 1009.3 -9.9 -9.999  84.7 -99.99 -9.99
2020/01/18 10:36 EST   49.25  49.29   10  106   19  18.9 -99.9 1009.3 -9.9 -9.999  85.2 -99.99 -9.99
2020/01/18 10:42 EST   49.21  49.25   10  108   19  19.0 -99.9 1009.1 -9.9 -9.999  84.5 -99.99 -9.99
2020/01/18 10:48 EST   49.17  49.21   15  107   20  19.0 -99.9 1008.9 -9.9 -9.999  83.6 -99.99 -9.99
2020/01/18 10:54 EST   49.13  49.17    9  111   16  19.0 -99.9 1008.5 -9.9 -9.999  83.7 -99.99 -9.99
2020/01/18 11:00 EST   48.98  49.06   12  102   24  19.0 -99.9 1008.3 -9.9 -9.999  82.8 -99.99 -9.99
2020/01/18 11:06 EST   48.98  49.06   13   92   25  19.0 -99.9 1008.0 -9.9 -9.999  82.6 -99.99 -9.99
2020/01/18 11:12 EST   48.94  48.98   12  112   19  19.2 -99.9 1007.9 -9.9 -9.999  82.5 -99.99 -9.99
2020/01/18 11:18 EST   48.90  48.98   13  104   23  19.4 -99.9 1007.7 -9.9 -9.999  82.3 -99.99 -9.99
2020/01/18 11:24 EST   48.98  49.06   10   98   19  19.4 -99.9 1007.5 -9.9 -9.999  82.5 -99.99 -9.99
2020/01/18 11:30 EST   49.06  49.09   12  109   18  19.4 -99.9 1007.2 -9.9 -9.999  82.1 -99.99 -9.99
2020/01/18 11:36 EST   49.06  49.13   13   98   22  19.4 -99.9 1006.9 -9.9 -9.999  82.0 -99.99 -9.99
2020/01/18 11:42 EST   49.09  49.17    7  100   15  19.4 -99.9 1006.6 -9.9 -9.999  82.9 -99.99 -9.99
2020/01/18 11:48 EST   49.09  49.13    9   87   18  19.4 -99.9 1006.4 -9.9 -9.999  82.9 -99.99 -9.99
2020/01/18 11:54 EST   49.13  49.17   11   98   22  19.4 -99.9 1005.9 -9.9 -9.999  83.3 -99.99 -9.99
2020/01/18 12:00 EST   49.21  49.25   14  104   23  19.6 -99.9 1005.4 -9.9 -9.999  83.2 -99.99 -9.99
2020/01/18 12:06 EST   49.29  49.33   14   97   18  19.8 -99.9 1005.3 -9.9 -9.999  83.0 -99.99 -9.99
2020/01/18 12:12 EST   49.37  49.45   12  101   19  19.8 -99.9 1005.3 -9.9 -9.999  82.7 -99.99 -9.99
2020/01/18 12:18 EST   49.61  49.65   13   95   19  19.8 -99.9 1004.9 -9.9 -9.999  82.7 -99.99 -9.99
2020/01/18 12:24 EST   49.69  49.72   12  101   18  19.9 -99.9 1004.5 -9.9 -9.999  82.9 -99.99 -9.99
2020/01/18 12:30 EST   49.84  49.88   10   95   16  19.9 -99.9 1004.6 -9.9 -9.999  83.1 -99.99 -9.99
2020/01/18 12:36 EST   49.92  49.96   13   97   20  19.8 -99.9 1004.7 -9.9 -9.999  82.2 -99.99 -9.99
2020/01/18 12:42 EST   50.00  50.04   14  102   23  19.8 -99.9 1004.5 -9.9 -9.999  81.9 -99.99 -9.99
2020/01/18 12:48 EST   50.00  50.04   12  105   24  19.8 -99.9 1004.2 -9.9 -9.999  82.8 -99.99 -9.99
2020/01/18 12:54 EST   50.04  50.12    9   99   18  19.6 -99.9 1003.8 -9.9 -9.999  83.7 -99.99 -9.99
2020/01/18 13:00 EST   50.08  50.16   11   84   18  19.2 -99.9 1003.6 -9.9 -9.999  84.4 -99.99 -9.99
2020/01/18 13:06 EST   50.08  50.12   12   95   18  19.2 -99.9 1003.3 -9.9 -9.999  84.6 -99.99 -9.99
2020/01/18 13:12 EST   50.20  50.24   11  100   19  19.2 -99.9 1003.0 -9.9 -9.999  84.0 -99.99 -9.99
2020/01/18 13:18 EST   50.16  50.20   11  101   20  19.2 -99.9 1002.8 -9.9 -9.999  83.5 -99.99 -9.99
2020/01/18 13:24 EST   50.28  50.31   12  107   17  19.4 -99.9 1002.6 -9.9 -9.999  83.2 -99.99 -9.99
2020/01/18 13:30 EST   50.31  50.35   10  101   16  19.2 -99.9 1002.2 -9.9 -9.999  83.7 -99.99 -9.99
2020/01/18 13:36 EST   50.43  50.47    8   95   17  19.2 -99.9 1001.9 -9.9 -9.999  83.9 -99.99 -9.99
2020/01/18 13:42 EST   50.35  50.39   11   95   16  19.2 -99.9 1001.7 -9.9 -9.999  83.5 -99.99 -9.99
2020/01/18 13:48 EST   50.28  50.31   10   99   15  19.2 -99.9 1001.6 -9.9 -9.999  83.5 -99.99 -9.99
2020/01/18 13:54 EST   50.35  50.39    9   92   17  19.0 -99.9 1001.5 -9.9 -9.999  83.9 -99.99 -9.99
2020/01/18 14:00 EST   50.43  50.51   12   95   19  19.0 -99.9 1001.3 -9.9 -9.999  83.7 -99.99 -9.99
2020/01/18 14:06 EST   50.43  50.51   12  104   20  19.0 -99.9 1001.1 -9.9 -9.999  84.7 -99.99 -9.99
2020/01/18 14:12 EST   50.43  50.47    9   92   16  19.0 -99.9 1000.8 -9.9 -9.999  85.1 -99.99 -9.99
2020/01/18 14:18 EST   50.51  50.55    6   99   17  19.2 -99.9 1000.6 -9.9 -9.999  84.7 -99.99 -9.99
2020/01/18 14:24 EST   50.47  50.55   10   99   15  19.2 -99.9 1000.5 -9.9 -9.999  84.7 -99.99 -9.99
2020/01/18 14:30 EST   50.55  50.59    9   99   16  19.2 -99.9 1000.4 -9.9 -9.999  85.6 -99.99 -9.99
2020/01/18 14:36 EST   50.47  50.55    7   95   15  19.2 -99.9 1000.3 -9.9 -9.999  85.7 -99.99 -9.99
2020/01/18 14:42 EST   50.43  50.47   10   82   17  19.0 -99.9 1000.3 -9.9 -9.999  85.1 -99.99 -9.99
2020/01/18 14:48 EST   50.35  50.39    8   91   13  19.0 -99.9 1000.2 -9.9 -9.999  84.7 -99.99 -9.99
2020/01/18 14:54 EST   50.28  50.31   11   90   19  18.7 -99.9 1000.1 -9.9 -9.999  84.2 -99.99 -9.99
2020/01/18 15:00 EST   50.16  50.20    9   84   16  18.7 -99.9  999.8 -9.9 -9.999  84.2 -99.99 -9.99
2020/01/18 15:06 EST   50.16  50.20   11   82   19  18.5 -99.9  999.6 -9.9 -9.999  83.8 -99.99 -9.99
2020/01/18 15:12 EST   50.08  50.12    5   94   13  18.7 -99.9  999.5 -9.9 -9.999  84.1 -99.99 -9.99
2020/01/18 15:18 EST   50.00  50.08    8   93   13  18.5 -99.9  999.5 -9.9 -9.999  83.3 -99.99 -9.99
2020/01/18 15:24 EST   49.88  49.92   10   87   14  18.5 -99.9  999.5 -9.9 -9.999  82.7 -99.99 -9.99
2020/01/18 15:30 EST   49.72  49.80   10   93   14  18.5 -99.9  999.4 -9.9 -9.999  82.4 -99.99 -9.99
2020/01/18 15:36 EST   49.57  49.65    4   79   13  18.5 -99.9  999.4 -9.9 -9.999  82.8 -99.99 -9.99
2020/01/18 15:42 EST   49.45  49.49    6   94   13  18.5 -99.9  999.3 -9.9 -9.999  82.1 -99.99 -9.99
2020/01/18 15:48 EST   49.29  49.33    6   72   18  18.5 -99.9  999.2 -9.9 -9.999  81.9 -99.99 -9.99
2020/01/18 15:54 EST   49.09  49.13    7   75   15  18.5 -99.9  999.2 -9.9 -9.999  81.8 -99.99 -9.99
2020/01/18 16:00 EST   48.98  49.06    6   96   13  18.5 -99.9  999.2 -9.9 -9.999  81.8 -99.99 -9.99
2020/01/18 16:06 EST   48.86  48.94    7   73   14  18.5 -99.9  999.1 -9.9 -9.999  81.7 -99.99 -9.99
2020/01/18 16:12 EST   48.70  48.78    9   74   11  18.3 -99.9  999.0 -9.9 -9.999  81.2 -99.99 -9.99
2020/01/18 16:18 EST   48.58  48.66    8   88   17  18.3 -99.9  998.9 -9.9 -9.999  81.3 -99.99 -9.99
2020/01/18 16:24 EST   48.54  48.58   10   81   16  18.1 -99.9  998.9 -9.9 -9.999  81.3 -99.99 -9.99
2020/01/18 16:30 EST   48.43  48.46   11   85   19  18.0 -99.9  998.9 -9.9 -9.999  81.8 -99.99 -9.99
2020/01/18 16:36 EST   48.31  48.35    7   79   11  18.0 -99.9  998.9 -9.9 -9.999  82.2 -99.99 -9.99
2020/01/18 16:42 EST   48.27  48.31    6   79   17  18.0 -99.9  998.9 -9.9 -9.999  82.1 -99.99 -9.99
2020/01/18 16:48 EST   48.11  48.15    9   68   13  18.0 -99.9  998.8 -9.9 -9.999  81.8 -99.99 -9.99
2020/01/18 16:54 EST   47.99  48.07    6   70   13  17.8 -99.9  998.9 -9.9 -9.999  81.9 -99.99 -9.99
2020/01/18 17:00 EST   47.95  47.99    5   66    9  17.8 -99.9  999.0 -9.9 -9.999  81.9 -99.99 -9.99
2020/01/18 17:06 EST   47.87  47.91    4   78    8  17.6 -99.9  998.9 -9.9 -9.999  82.2 -99.99 -9.99
2020/01/18 17:12 EST   47.80  47.83    5   59   12  17.4 -99.9  999.0 -9.9 -9.999  82.5 -99.99 -9.99
2020/01/18 17:18 EST   47.72  47.76    5   59    9  17.4 -99.9  999.0 -9.9 -9.999  82.2 -99.99 -9.99
2020/01/18 17:24 EST   47.56  47.60    6   71   13  17.2 -99.9  999.0 -9.9 -9.999  82.3 -99.99 -9.99
2020/01/18 17:30 EST   47.44  47.52    5   59    9  17.1 -99.9  999.0 -9.9 -9.999  83.0 -99.99 -9.99
2020/01/18 17:36 EST   47.36  47.40    4   50    8  17.1 -99.9  999.1 -9.9 -9.999  83.4 -99.99 -9.99
2020/01/18 17:42 EST   47.24  47.28    6   60    9  17.1 -99.9  999.0 -9.9 -9.999  83.2 -99.99 -9.99
2020/01/18 17:48 EST   47.09  47.17    6   51    9  16.9 -99.9  999.1 -9.9 -9.999  83.5 -99.99 -9.99
2020/01/18 17:54 EST   47.09  47.13    4   39    9  16.9 -99.9  999.1 -9.9 -9.999  83.5 -99.99 -9.99
2020/01/18 18:00 EST   46.93  46.97    4   53    9  16.9 -99.9  999.1 -9.9 -9.999  83.5 -99.99 -9.99
2020/01/18 18:06 EST   46.89  46.93    4   53    7  16.9 -99.9  999.2 -9.9 -9.999  83.6 -99.99 -9.99
2020/01/18 18:12 EST   46.81  46.85    5   46    8  16.9 -99.9  999.3 -9.9 -9.999  83.2 -99.99 -9.99
2020/01/18 18:18 EST   46.81  46.85    6   60   10  16.9 -99.9  999.3 -9.9 -9.999  82.8 -99.99 -9.99
2020/01/18 18:24 EST   46.69  46.77    5   50    8  16.9 -99.9  999.5 -9.9 -9.999  82.9 -99.99 -9.99
2020/01/18 18:30 EST   46.69  46.77    4   43    6  16.9 -99.9  999.6 -9.9 -9.999  83.2 -99.99 -9.99
2020/01/18 18:36 EST   46.69  46.73    4   39    8  16.7 -99.9  999.7 -9.9 -9.999  83.2 -99.99 -9.99
2020/01/18 18:42 EST   46.73  46.77    4   53    7  16.7 -99.9  999.8 -9.9 -9.999  83.3 -99.99 -9.99
2020/01/18 18:48 EST   46.65  46.73    5   33    7  16.7 -99.9  999.9 -9.9 -9.999  83.0 -99.99 -9.99
2020/01/18 18:54 EST   46.65  46.73    5   50    6  16.7 -99.9  999.9 -9.9 -9.999  83.3 -99.99 -9.99
2020/01/18 19:00 EST   46.65  46.69    4   27    7  16.5 -99.9 1000.0 -9.9 -9.999  83.7 -99.99 -9.99
2020/01/18 19:06 EST   46.57  46.61    4    8    5  16.5 -99.9 1000.1 -9.9 -9.999  84.2 -99.99 -9.99
2020/01/18 19:12 EST   46.50  46.54    3    3    5  16.5 -99.9 1000.3 -9.9 -9.999  84.1 -99.99 -9.99
2020/01/18 19:18 EST   46.46  46.50    5   18    6  16.5 -99.9 1000.3 -9.9 -9.999  83.9 -99.99 -9.99
2020/01/18 19:24 EST   46.38  46.46    7   37    9  16.3 -99.9 1000.3 -9.9 -9.999  83.3 -99.99 -9.99
2020/01/18 19:30 EST   46.34  46.42    5   28    9  16.3 -99.9 1000.4 -9.9 -9.999  83.5 -99.99 -9.99
2020/01/18 19:36 EST   46.30  46.38    5   33    7  16.3 -99.9 1000.4 -9.9 -9.999  83.5 -99.99 -9.99
2020/01/18 19:42 EST   46.22  46.30    4   48    7  16.3 -99.9 1000.5 -9.9 -9.999  83.6 -99.99 -9.99
2020/01/18 19:48 EST   46.10  46.18    4   29    5  16.3 -99.9 1000.6 -9.9 -9.999  83.9 -99.99 -9.99
2020/01/18 19:54 EST   46.06  46.10    4   20    6  16.2 -99.9 1000.7 -9.9 -9.999  83.4 -99.99 -9.99
2020/01/18 20:00 EST   45.98  46.06    4   21    6  16.2 -99.9 1000.7 -9.9 -9.999  83.4 -99.99 -9.99
2020/01/18 20:06 EST   45.91  45.94    4   21    7  16.2 -99.9 1000.7 -9.9 -9.999  83.5 -99.99 -9.99
2020/01/18 20:12 EST   45.83  45.87    4   17    8  16.2 -99.9 1000.8 -9.9 -9.999  83.1 -99.99 -9.99
2020/01/18 20:18 EST   45.67  45.75    5   42    8  16.0 -99.9 1000.7 -9.9 -9.999  82.6 -99.99 -9.99
2020/01/18 20:24 EST   45.67  45.71    3   12    6  16.0 -99.9 1000.7 -9.9 -9.999  83.4 -99.99 -9.99
2020/01/18 20:30 EST   45.59  45.63    4   17    6  16.0 -99.9 1000.7 -9.9 -9.999  83.7 -99.99 -9.99
2020/01/18 20:36 EST   45.47  45.55    4   11    5  16.0 -99.9 1000.7 -9.9 -9.999  83.5 -99.99 -9.99
2020/01/18 20:42 EST   45.43  45.47    4   25    6  16.0 -99.9 1000.8 -9.9 -9.999  83.0 -99.99 -9.99
2020/01/18 20:48 EST   45.28  45.35    3   14    7  16.0 -99.9 1000.8 -9.9 -9.999  83.5 -99.99 -9.99
2020/01/18 20:54 EST   45.16  45.20    4   15    5  16.0 -99.9 1000.9 -9.9 -9.999  83.6 -99.99 -9.99
2020/01/18 21:00 EST   45.04  45.12    4   10    5  15.8 -99.9 1000.8 -9.9 -9.999  84.4 -99.99 -9.99
2020/01/18 21:06 EST   44.96  45.00    7   11    8  15.4 -99.9 1000.8 -9.9 -9.999  84.1 -99.99 -9.99
2020/01/18 21:12 EST   44.84  44.92    6   11    9  15.4 -99.9 1000.9 -9.9 -9.999  84.1 -99.99 -9.99
2020/01/18 21:18 EST   44.72  44.76    6   10    8  15.3 -99.9 1000.9 -9.9 -9.999  83.9 -99.99 -9.99
2020/01/18 21:24 EST   44.53  44.57    6   10    9  15.1 -99.9 1001.1 -9.9 -9.999  83.8 -99.99 -9.99
2020/01/18 21:30 EST   44.33  44.41    6   12    8  15.1 -99.9 1001.2 -9.9 -9.999  83.6 -99.99 -9.99
2020/01/18 21:36 EST   44.21  44.25    6    7   10  15.1 -99.9 1001.2 -9.9 -9.999  83.3 -99.99 -9.99
2020/01/18 21:42 EST   44.09  44.13    6    6    8  14.9 -99.9 1001.3 -9.9 -9.999  82.8 -99.99 -9.99
2020/01/18 21:48 EST   44.02  44.06    5    8    7  14.9 -99.9 1001.3 -9.9 -9.999  82.8 -99.99 -9.99
2020/01/18 21:54 EST   43.78  43.86    5    7    6  14.9 -99.9 1001.4 -9.9 -9.999  82.8 -99.99 -9.99
2020/01/18 22:00 EST   43.66  43.74    4    0    7  14.7 -99.9 1001.4 -9.9 -9.999  83.1 -99.99 -9.99
2020/01/18 22:06 EST   43.62  43.70    6   10    7  14.7 -99.9 1001.6 -9.9 -9.999  82.7 -99.99 -9.99
2020/01/18 22:12 EST   43.62  43.66    6    4    8  14.7 -99.9 1001.7 -9.9 -9.999  82.6 -99.99 -9.99
2020/01/18 22:18 EST   43.58  43.62    5    2    7  14.5 -99.9 1001.7 -9.9 -9.999  82.6 -99.99 -9.99
2020/01/18 22:24 EST   43.50  43.58    4  358    9  14.5 -99.9 1001.8 -9.9 -9.999  82.3 -99.99 -9.99
2020/01/18 22:30 EST   43.50  43.54    5  357    8  14.5 -99.9 1001.9 -9.9 -9.999  81.9 -99.99 -9.99
2020/01/18 22:36 EST   43.46  43.54    5    2    7  14.5 -99.9 1002.1 -9.9 -9.999  81.3 -99.99 -9.99
2020/01/18 22:42 EST   43.35  43.43    5  356    7  14.5 -99.9 1002.2 -9.9 -9.999  80.9 -99.99 -9.99
2020/01/18 22:48 EST   43.35  43.39    6  357    9  14.4 -99.9 1002.2 -9.9 -9.999  80.1 -99.99 -9.99
2020/01/18 22:54 EST   43.31  43.39    5    3    7  14.4 -99.9 1002.3 -9.9 -9.999  80.1 -99.99 -9.99
2020/01/18 23:00 EST   43.31  43.39    5  357    8  14.4 -99.9 1002.4 -9.9 -9.999  79.8 -99.99 -9.99
2020/01/18 23:06 EST  -99.99 -99.99 -999 -999 -999 -99.9 -99.9 -999.9 -9.9 -9.999 -99.9 -99.99 -9.99
2020/01/18 23:12 EST  -99.99 -99.99 -999 -999 -999 -99.9 -99.9 -999.9 -9.9 -9.999 -99.9 -99.99 -9.99
2020/01/18 23:18 EST  -99.99 -99.99 -999 -999 -999 -99.9 -99.9 -999.9 -9.9 -9.999 -99.9 -99.99 -9.99
2020/01/18 23:24 EST  -99.99 -99.99 -999 -999 -999 -99.9 -99.9 -999.9 -9.9 -9.999 -99.9 -99.99 -9.99
2020/01/18 23:30 EST  -99.99 -99.99 -999 -999 -999 -99.9 -99.9 -999.9 -9.9 -9.999 -99.9 -99.99 -9.99
2020/01/18 23:36 EST  -99.99 -99.99 -999 -999 -999 -99.9 -99.9 -999.9 -9.9 -9.999 -99.9 -99.99 -9.99
2020/01/18 23:42 EST  -99.99 -99.99 -999 -999 -999 -99.9 -99.9 -999.9 -9.9 -9.999 -99.9 -99.99 -9.99
2020/01/18 23:48 EST  -99.99 -99.99 -999 -999 -999 -99.9 -99.9 -999.9 -9.9 -9.999 -99.9 -99.99 -9.99
2020/01/18 23:54 EST  -99.99 -99.99 -999 -999 -999 -99.9 -99.9 -999.9 -9.9 -9.999 -99.9 -99.99 -9.99
2020/01/19 00:00 EST  -99.99 -99.99 -999 -999 -999 -99.9 -99.9 -999.9 -9.9 -9.999 -99.9 -99.99 -9.99
2020/01/19 00:06 EST  -99.99 -99.99 -999 -999 -999 -99.9 -99.9 -999.9 -9.9 -9.999 -99.9 -99.99 -9.99
2020/01/19 00:12 EST  -99.99 -99.99 -999 -999 -999 -99.9 -99.9 -999.9 -9.9 -9.999 -99.9 -99.99 -9.99
2020/01/19 00:18 EST  -99.99 -99.99 -999 -999 -999 -99.9 -99.9 -999.9 -9.9 -9.999 -99.9 -99.99 -9.99
2020/01/19 00:24 EST  -99.99 -99.99 -999 -999 -999 -99.9 -99.9 -999.9 -9.9 -9.999 -99.9 -99.99 -9.99
2020/01/19 00:30 EST  -99.99 -99.99 -999 -999 -999 -99.9 -99.9 -999.9 -9.9 -9.999 -99.9 -99.99 -9.99
2020/01/19 00:36 EST  -99.99 -99.99 -999 -999 -999 -99.9 -99.9 -999.9 -9.9 -9.999 -99.9 -99.99 -9.99
2020/01/19 00:42 EST  -99.99 -99.99 -999 -999 -999 -99.9 -99.9 -999.9 -9.9 -9.999 -99.9 -99.99 -9.99
2020/01/19 00:48 EST  -99.99 -99.99 -999 -999 -999 -99.9 -99.9 -999.9 -9.9 -9.999 -99.9 -99.99 -9.99
2020/01/19 00:54 EST  -99.99 -99.99 -999 -999 -999 -99.9 -99.9 -999.9 -9.9 -9.999 -99.9 -99.99 -9.99
2020/01/19 01:00 EST  -99.99 -99.99 -999 -999 -999 -99.9 -99.9 -999.9 -9.9 -9.999 -99.9 -99.99 -9.99
2020/01/19 01:06 EST  -99.99 -99.99 -999 -999 -999 -99.9 -99.9 -999.9 -9.9 -9.999 -99.9 -99.99 -9.99
2020/01/19 01:12 EST  -99.99 -99.99 -999 -999 -999 -99.9 -99.9 -999.9 -9.9 -9.999 -99.9 -99.99 -9.99
2020/01/19 01:18 EST  -99.99 -99.99 -999 -999 -999 -99.9 -99.9 -999.9 -9.9 -9.999 -99.9 -99.99 -9.99
2020/01/19 01:24 EST  -99.99 -99.99 -999 -999 -999 -99.9 -99.9 -999.9 -9.9 -9.999 -99.9 -99.99 -9.99
2020/01/19 01:30 EST  -99.99 -99.99 -999 -999 -999 -99.9 -99.9 -999.9 -9.9 -9.999 -99.9 -99.99 -9.99
2020/01/19 01:36 EST  -99.99 -99.99 -999 -999 -999 -99.9 -99.9 -999.9 -9.9 -9.999 -99.9 -99.99 -9.99
2020/01/19 01:42 EST  -99.99 -99.99 -999 -999 -999 -99.9 -99.9 -999.9 -9.9 -9.999 -99.9 -99.99 -9.99
2020/01/19 01:48 EST  -99.99 -99.99 -999 -999 -999 -99.9 -99.9 -999.9 -9.9 -9.999 -99.9 -99.99 -9.99
2020/01/19 01:54 EST  -99.99 -99.99 -999 -999 -999 -99.9 -99.9 -999.9 -9.9 -9.999 -99.9 -99.99 -9.99
2020/01/19 02:00 EST  -99.99 -99.99 -999 -999 -999 -99.9 -99.9 -999.9 -9.9 -9.999 -99.9 -99.99 -9.99
2020/01/19 02:06 EST  -99.99 -99.99 -999 -999 -999 -99.9 -99.9 -999.9 -9.9 -9.999 -99.9 -99.99 -9.99
2020/01/19 02:12 EST  -99.99 -99.99 -999 -999 -999 -99.9 -99.9 -999.9 -9.9 -9.999 -99.9 -99.99 -9.99
2020/01/19 02:18 EST  -99.99 -99.99 -999 -999 -999 -99.9 -99.9 -999.9 -9.9 -9.999 -99.9 -99.99 -9.99
2020/01/19 02:24 EST  -99.99 -99.99 -999 -999 -999 -99.9 -99.9 -999.9 -9.9 -9.999 -99.9 -99.99 -9.99
2020/01/19 02:30 EST  -99.99 -99.99 -999 -999 -999 -99.9 -99.9 -999.9 -9.9 -9.999 -99.9 -99.99 -9.99
2020/01/19 02:36 EST  -99.99 -99.99 -999 -999 -999 -99.9 -99.9 -999.9 -9.9 -9.999 -99.9 -99.99 -9.99
2020/01/19 02:42 EST  -99.99 -99.99 -999 -999 -999 -99.9 -99.9 -999.9 -9.9 -9.999 -99.9 -99.99 -9.99
2020/01/19 02:48 EST  -99.99 -99.99 -999 -999 -999 -99.9 -99.9 -999.9 -9.9 -9.999 -99.9 -99.99 -9.99
2020/01/19 02:54 EST  -99.99 -99.99 -999 -999 -999 -99.9 -99.9 -999.9 -9.9 -9.999 -99.9 -99.99 -9.99
2020/01/19 03:00 EST  -99.99 -99.99 -999 -999 -999 -99.9 -99.9 -999.9 -9.9 -9.999 -99.9 -99.99 -9.99
2020/01/19 03:06 EST  -99.99 -99.99 -999 -999 -999 -99.9 -99.9 -999.9 -9.9 -9.999 -99.9 -99.99 -9.99
2020/01/19 03:12 EST  -99.99 -99.99 -999 -999 -999 -99.9 -99.9 -999.9 -9.9 -9.999 -99.9 -99.99 -9.99
2020/01/19 03:18 EST  -99.99 -99.99 -999 -999 -999 -99.9 -99.9 -999.9 -9.9 -9.999 -99.9 -99.99 -9.99
2020/01/19 03:24 EST  -99.99 -99.99 -999 -999 -999 -99.9 -99.9 -999.9 -9.9 -9.999 -99.9 -99.99 -9.99
2020/01/19 03:30 EST  -99.99 -99.99 -999 -999 -999 -99.9 -99.9 -999.9 -9.9 -9.999 -99.9 -99.99 -9.99
2020/01/19 03:36 EST  -99.99 -99.99 -999 -999 -999 -99.9 -99.9 -999.9 -9.9 -9.999 -99.9 -99.99 -9.99
2020/01/19 03:42 EST  -99.99 -99.99 -999 -999 -999 -99.9 -99.9 -999.9 -9.9 -9.999 -99.9 -99.99 -9.99
2020/01/19 03:48 EST  -99.99 -99.99 -999 -999 -999 -99.9 -99.9 -999.9 -9.9 -9.999 -99.9 -99.99 -9.99
2020/01/19 03:54 EST  -99.99 -99.99 -999 -999 -999 -99.9 -99.9 -999.9 -9.9 -9.999 -99.9 -99.99 -9.99
2020/01/19 04:00 EST  -99.99 -99.99 -999 -999 -999 -99.9 -99.9 -999.9 -9.9 -9.999 -99.9 -99.99 -9.99
2020/01/19 04:06 EST  -99.99 -99.99 -999 -999 -999 -99.9 -99.9 -999.9 -9.9 -9.999 -99.9 -99.99 -9.99
2020/01/19 04:12 EST  -99.99 -99.99 -999 -999 -999 -99.9 -99.9 -999.9 -9.9 -9.999 -99.9 -99.99 -9.99
2020/01/19 04:18 EST  -99.99 -99.99 -999 -999 -999 -99.9 -99.9 -999.9 -9.9 -9.999 -99.9 -99.99 -9.99
2020/01/19 04:24 EST  -99.99 -99.99 -999 -999 -999 -99.9 -99.9 -999.9 -9.9 -9.999 -99.9 -99.99 -9.99
2020/01/19 04:30 EST  -99.99 -99.99 -999 -999 -999 -99.9 -99.9 -999.9 -9.9 -9.999 -99.9 -99.99 -9.99
2020/01/19 04:36 EST  -99.99 -99.99 -999 -999 -999 -99.9 -99.9 -999.9 -9.9 -9.999 -99.9 -99.99 -9.99
2020/01/19 04:42 EST  -99.99 -99.99 -999 -999 -999 -99.9 -99.9 -999.9 -9.9 -9.999 -99.9 -99.99 -9.99
2020/01/19 04:48 EST  -99.99 -99.99 -999 -999 -999 -99.9 -99.9 -999.9 -9.9 -9.999 -99.9 -99.99 -9.99
2020/01/19 04:54 EST  -99.99 -99.99 -999 -999 -999 -99.9 -99.9 -999.9 -9.9 -9.999 -99.9 -99.99 -9.99
2020/01/19 05:00 EST  -99.99 -99.99 -999 -999 -999 -99.9 -99.9 -999.9 -9.9 -9.999 -99.9 -99.99 -9.99
2020/01/19 05:06 EST  -99.99 -99.99 -999 -999 -999 -99.9 -99.9 -999.9 -9.9 -9.999 -99.9 -99.99 -9.99
2020/01/19 05:12 EST  -99.99 -99.99 -999 -999 -999 -99.9 -99.9 -999.9 -9.9 -9.999 -99.9 -99.99 -9.99